sensor_id;sensor_type;location;lat;lon;timestamp;P1;durP1;ratioP1;P2;durP2;ratioP2
15183;SDS011;7693;49.266;7.104;2023-02-08T06:37:14;16.70;;;10.37;;
15183;SDS011;7693;49.266;7.104;2023-02-08T06:39:41;15.50;;;11.60;;
15183;SDS011;7693;49.266;7.104;2023-02-08T06:42:06;17.20;;;12.17;;
15183;SDS011;7693;49.266;7.104;2023-02-08T06:44:32;17.20;;;11.43;;
15183;SDS011;7693;49.266;7.104;2023-02-08T06:46:58;18.33;;;11.40;;
15183;SDS011;7693;49.266;7.104;2023-02-08T06:49:23;18.93;;;11.23;;
15183;SDS011;7693;49.266;7.104;2023-02-08T06:51:49;17.73;;;12.27;;
15183;SDS011;7693;49.266;7.104;2023-02-08T06:54:14;20.40;;;13.07;;
15183;SDS011;7693;49.266;7.104;2023-02-08T06:56:40;18.27;;;11.43;;
15183;SDS011;7693;49.266;7.104;2023-02-08T06:59:06;13.37;;;10.73;;
15183;SDS011;7693;49.266;7.104;2023-02-08T07:01:32;13.67;;;11.30;;
15183;SDS011;7693;49.266;7.104;2023-02-08T07:03:57;14.07;;;11.07;;
15183;SDS011;7693;49.266;7.104;2023-02-08T07:06:23;16.10;;;11.40;;
15183;SDS011;7693;49.266;7.104;2023-02-08T07:08:48;16.03;;;11.00;;
15183;SDS011;7693;49.266;7.104;2023-02-08T07:11:15;19.00;;;11.30;;
15183;SDS011;7693;49.266;7.104;2023-02-08T07:13:44;15.97;;;10.33;;
15183;SDS011;7693;49.266;7.104;2023-02-08T07:16:14;17.07;;;10.70;;
15183;SDS011;7693;49.266;7.104;2023-02-08T07:18:40;12.37;;;10.57;;
15183;SDS011;7693;49.266;7.104;2023-02-08T07:21:06;13.60;;;10.60;;
15183;SDS011;7693;49.266;7.104;2023-02-08T07:23:32;15.13;;;10.70;;
15183;SDS011;7693;49.266;7.104;2023-02-08T07:26:01;15.10;;;11.23;;
15183;SDS011;7693;49.266;7.104;2023-02-08T07:28:32;15.53;;;10.37;;
15183;SDS011;7693;49.266;7.104;2023-02-08T07:30:57;15.63;;;10.43;;
15183;SDS011;7693;49.266;7.104;2023-02-08T07:33:23;19.33;;;11.03;;
15183;SDS011;7693;49.266;7.104;2023-02-08T07:35:52;15.23;;;10.80;;
15183;SDS011;7693;49.266;7.104;2023-02-08T07:38:17;13.63;;;10.83;;
15183;SDS011;7693;49.266;7.104;2023-02-08T07:40:43;12.40;;;9.73;;
15183;SDS011;7693;49.266;7.104;2023-02-08T07:43:08;13.97;;;10.60;;
15183;SDS011;7693;49.266;7.104;2023-02-08T07:45:36;14.67;;;11.53;;
15183;SDS011;7693;49.266;7.104;2023-02-08T07:48:02;14.60;;;10.67;;
15183;SDS011;7693;49.266;7.104;2023-02-08T07:50:27;13.83;;;11.10;;
15183;SDS011;7693;49.266;7.104;2023-02-08T07:52:53;14.87;;;10.77;;
15183;SDS011;7693;49.266;7.104;2023-02-08T07:55:19;14.70;;;10.47;;
15183;SDS011;7693;49.266;7.104;2023-02-08T07:57:45;14.93;;;10.30;;
15183;SDS011;7693;49.266;7.104;2023-02-08T08:00:12;19.53;;;10.93;;
15183;SDS011;7693;49.266;7.104;2023-02-08T08:02:39;20.10;;;11.40;;
15183;SDS011;7693;49.266;7.104;2023-02-08T08:05:05;18.17;;;10.97;;
15183;SDS011;7693;49.266;7.104;2023-02-08T08:07:32;17.63;;;11.37;;
15183;SDS011;7693;49.266;7.104;2023-02-08T08:09:57;11.77;;;10.37;;
15183;SDS011;7693;49.266;7.104;2023-02-08T08:12:23;14.60;;;10.23;;
15183;SDS011;7693;49.266;7.104;2023-02-08T08:14:49;15.83;;;11.53;;
15183;SDS011;7693;49.266;7.104;2023-02-08T08:17:16;14.17;;;10.43;;
15183;SDS011;7693;49.266;7.104;2023-02-08T08:19:42;16.20;;;11.20;;
15183;SDS011;7693;49.266;7.104;2023-02-08T08:22:08;14.70;;;10.97;;
15183;SDS011;7693;49.266;7.104;2023-02-08T08:24:33;14.03;;;11.30;;
15183;SDS011;7693;49.266;7.104;2023-02-08T08:27:03;14.07;;;10.90;;
15183;SDS011;7693;49.266;7.104;2023-02-08T08:29:33;13.50;;;10.27;;
15183;SDS011;7693;49.266;7.104;2023-02-08T08:32:00;12.33;;;9.50;;
15183;SDS011;7693;49.266;7.104;2023-02-08T08:34:26;13.03;;;10.17;;
15183;SDS011;7693;49.266;7.104;2023-02-08T08:36:55;14.93;;;10.97;;
15183;SDS011;7693;49.266;7.104;2023-02-08T08:39:21;14.17;;;11.03;;
15183;SDS011;7693;49.266;7.104;2023-02-08T08:41:47;12.47;;;9.80;;
15183;SDS011;7693;49.266;7.104;2023-02-08T08:44:12;15.70;;;10.63;;
15183;SDS011;7693;49.266;7.104;2023-02-08T08:46:38;14.00;;;10.17;;
15183;SDS011;7693;49.266;7.104;2023-02-08T08:49:04;13.80;;;10.00;;
15183;SDS011;7693;49.266;7.104;2023-02-08T08:51:29;14.37;;;10.67;;
15183;SDS011;7693;49.266;7.104;2023-02-08T08:53:59;13.07;;;9.73;;
15183;SDS011;7693;49.266;7.104;2023-02-08T08:56:25;18.07;;;10.47;;
15183;SDS011;7693;49.266;7.104;2023-02-08T08:58:50;12.77;;;9.63;;
15183;SDS011;7693;49.266;7.104;2023-02-08T09:01:16;14.77;;;10.20;;
15183;SDS011;7693;49.266;7.104;2023-02-08T09:03:42;16.07;;;11.00;;
15183;SDS011;7693;49.266;7.104;2023-02-08T09:06:07;12.37;;;9.43;;
15183;SDS011;7693;49.266;7.104;2023-02-08T09:08:33;12.50;;;10.10;;
15183;SDS011;7693;49.266;7.104;2023-02-08T09:11:09;12.37;;;9.70;;
15183;SDS011;7693;49.266;7.104;2023-02-08T09:13:36;13.60;;;9.67;;
15183;SDS011;7693;49.266;7.104;2023-02-08T09:16:09;13.90;;;9.83;;
15183;SDS011;7693;49.266;7.104;2023-02-08T09:18:38;10.87;;;8.87;;
15183;SDS011;7693;49.266;7.104;2023-02-08T09:21:10;12.00;;;9.40;;
15183;SDS011;7693;49.266;7.104;2023-02-08T09:23:41;12.57;;;9.53;;
15183;SDS011;7693;49.266;7.104;2023-02-08T09:26:08;14.03;;;9.57;;
15183;SDS011;7693;49.266;7.104;2023-02-08T09:28:35;12.50;;;9.33;;
15183;SDS011;7693;49.266;7.104;2023-02-08T09:31:11;15.47;;;9.87;;
15183;SDS011;7693;49.266;7.104;2023-02-08T09:33:39;14.27;;;9.90;;
15183;SDS011;7693;49.266;7.104;2023-02-08T09:36:05;13.20;;;8.77;;
15183;SDS011;7693;49.266;7.104;2023-02-08T09:38:31;10.47;;;9.20;;
15183;SDS011;7693;49.266;7.104;2023-02-08T09:46:27;10.37;;;9.27;;
15183;SDS011;7693;49.266;7.104;2023-02-08T09:48:57;14.10;;;10.07;;
15183;SDS011;7693;49.266;7.104;2023-02-08T09:51:32;14.17;;;9.17;;
15183;SDS011;7693;49.266;7.104;2023-02-08T09:54:04;11.93;;;9.30;;
15183;SDS011;7693;49.266;7.104;2023-02-08T09:56:41;12.13;;;9.63;;
15183;SDS011;7693;49.266;7.104;2023-02-08T09:59:11;12.00;;;9.57;;
15183;SDS011;7693;49.266;7.104;2023-02-08T10:01:45;10.67;;;9.17;;
15183;SDS011;7693;49.266;7.104;2023-02-08T10:04:17;11.93;;;9.83;;
15183;SDS011;7693;49.266;7.104;2023-02-08T10:06:49;15.20;;;10.00;;
15183;SDS011;7693;49.266;7.104;2023-02-08T10:09:16;12.57;;;9.73;;
15183;SDS011;7693;49.266;7.104;2023-02-08T10:12:01;12.03;;;9.00;;
15183;SDS011;7693;49.266;7.104;2023-02-08T10:25:54;14.97;;;8.67;;
15183;SDS011;7693;49.266;7.104;2023-02-08T10:36:54;12.43;;;8.57;;
15183;SDS011;7693;49.266;7.104;2023-02-08T10:39:24;10.93;;;7.77;;
15183;SDS011;7693;49.266;7.104;2023-02-08T10:41:53;8.40;;;7.50;;
15183;SDS011;7693;49.266;7.104;2023-02-08T10:50:15;10.57;;;7.60;;
15183;SDS011;7693;49.266;7.104;2023-02-08T10:52:46;12.10;;;9.67;;
15183;SDS011;7693;49.266;7.104;2023-02-08T10:55:13;10.93;;;8.03;;
15183;SDS011;7693;49.266;7.104;2023-02-08T10:57:40;8.53;;;7.60;;
15183;SDS011;7693;49.266;7.104;2023-02-08T11:00:10;8.53;;;7.60;;
15183;SDS011;7693;49.266;7.104;2023-02-08T11:02:41;9.27;;;7.97;;
15183;SDS011;7693;49.266;7.104;2023-02-08T13:36:25;6.57;;;5.70;;
15183;SDS011;7693;49.266;7.104;2023-02-08T13:38:57;8.03;;;5.47;;
15183;SDS011;7693;49.266;7.104;2023-02-08T13:41:24;7.00;;;5.40;;
15183;SDS011;7693;49.266;7.104;2023-02-08T13:46:25;5.47;;;4.87;;
15183;SDS011;7693;49.266;7.104;2023-02-08T13:48:58;5.40;;;5.00;;
15183;SDS011;7693;49.266;7.104;2023-02-08T13:57:04;7.17;;;5.70;;
15183;SDS011;7693;49.266;7.104;2023-02-08T13:59:35;6.30;;;5.70;;
15183;SDS011;7693;49.266;7.104;2023-02-08T14:04:36;6.10;;;5.50;;
15183;SDS011;7693;49.266;7.104;2023-02-08T14:07:25;5.93;;;5.40;;
15183;SDS011;7693;49.266;7.104;2023-02-08T14:10:13;5.90;;;5.13;;
15183;SDS011;7693;49.266;7.104;2023-02-08T14:13:02;5.90;;;5.40;;
15183;SDS011;7693;49.266;7.104;2023-02-08T14:15:47;7.53;;;5.77;;
15183;SDS011;7693;49.266;7.104;2023-02-08T14:18:52;5.10;;;4.70;;
15183;SDS011;7693;49.266;7.104;2023-02-08T14:23:58;6.67;;;5.70;;
15183;SDS011;7693;49.266;7.104;2023-02-08T16:08:27;11.47;;;7.87;;
15183;SDS011;7693;49.266;7.104;2023-02-08T16:13:30;9.10;;;7.90;;
15183;SDS011;7693;49.266;7.104;2023-02-08T16:16:16;14.07;;;8.57;;
15183;SDS011;7693;49.266;7.104;2023-02-08T16:23:53;10.10;;;8.70;;
15183;SDS011;7693;49.266;7.104;2023-02-08T16:26:27;10.80;;;7.77;;
15183;SDS011;7693;49.266;7.104;2023-02-08T16:29:00;8.73;;;7.83;;
15183;SDS011;7693;49.266;7.104;2023-02-08T16:31:31;11.77;;;7.73;;
15183;SDS011;7693;49.266;7.104;2023-02-08T16:36:30;15.37;;;10.60;;
15183;SDS011;7693;49.266;7.104;2023-02-08T16:44:24;19.23;;;12.73;;
15183;SDS011;7693;49.266;7.104;2023-02-08T16:46:55;19.03;;;14.37;;
15183;SDS011;7693;49.266;7.104;2023-02-08T16:49:22;18.43;;;13.87;;
15183;SDS011;7693;49.266;7.104;2023-02-08T16:51:47;39.27;;;26.07;;
15183;SDS011;7693;49.266;7.104;2023-02-08T16:54:15;17.13;;;12.83;;
15183;SDS011;7693;49.266;7.104;2023-02-08T16:56:43;15.47;;;11.53;;
15183;SDS011;7693;49.266;7.104;2023-02-08T16:59:13;21.03;;;13.80;;
15183;SDS011;7693;49.266;7.104;2023-02-08T17:01:40;15.00;;;11.50;;
15183;SDS011;7693;49.266;7.104;2023-02-08T17:04:10;16.67;;;11.00;;
15183;SDS011;7693;49.266;7.104;2023-02-08T17:06:36;14.40;;;10.77;;
15183;SDS011;7693;49.266;7.104;2023-02-08T17:09:04;12.97;;;10.83;;
15183;SDS011;7693;49.266;7.104;2023-02-08T17:11:32;20.67;;;13.27;;
15183;SDS011;7693;49.266;7.104;2023-02-08T17:13:58;12.50;;;10.23;;
15183;SDS011;7693;49.266;7.104;2023-02-08T17:16:24;14.23;;;9.80;;
15183;SDS011;7693;49.266;7.104;2023-02-08T17:18:51;15.83;;;10.30;;
15183;SDS011;7693;49.266;7.104;2023-02-08T17:21:17;70.17;;;38.20;;
15183;SDS011;7693;49.266;7.104;2023-02-08T17:23:43;11.63;;;10.30;;
15183;SDS011;7693;49.266;7.104;2023-02-08T17:26:20;14.63;;;11.87;;
15183;SDS011;7693;49.266;7.104;2023-02-08T17:28:52;47.73;;;30.83;;
15183;SDS011;7693;49.266;7.104;2023-02-08T17:31:19;12.17;;;10.33;;
15183;SDS011;7693;49.266;7.104;2023-02-08T17:33:44;15.23;;;12.23;;
15183;SDS011;7693;49.266;7.104;2023-02-08T17:36:11;17.40;;;12.93;;
15183;SDS011;7693;49.266;7.104;2023-02-08T17:38:39;18.13;;;14.50;;
15183;SDS011;7693;49.266;7.104;2023-02-08T17:41:06;23.87;;;15.63;;
15183;SDS011;7693;49.266;7.104;2023-02-08T17:43:37;14.93;;;10.83;;
15183;SDS011;7693;49.266;7.104;2023-02-08T17:46:09;15.80;;;10.77;;
15183;SDS011;7693;49.266;7.104;2023-02-08T17:48:36;17.60;;;13.50;;
15183;SDS011;7693;49.266;7.104;2023-02-08T17:51:05;20.43;;;14.27;;
15183;SDS011;7693;49.266;7.104;2023-02-08T17:53:42;20.50;;;14.53;;
15183;SDS011;7693;49.266;7.104;2023-02-08T17:56:26;16.63;;;12.00;;
15183;SDS011;7693;49.266;7.104;2023-02-08T17:58:53;15.90;;;11.37;;
15183;SDS011;7693;49.266;7.104;2023-02-08T18:01:20;16.73;;;11.57;;
15183;SDS011;7693;49.266;7.104;2023-02-08T18:03:48;15.30;;;11.23;;
15183;SDS011;7693;49.266;7.104;2023-02-08T18:06:15;15.07;;;11.20;;
15183;SDS011;7693;49.266;7.104;2023-02-08T18:08:45;15.80;;;11.43;;
15183;SDS011;7693;49.266;7.104;2023-02-08T18:11:12;16.60;;;11.60;;
15183;SDS011;7693;49.266;7.104;2023-02-08T18:13:46;17.17;;;12.67;;
15183;SDS011;7693;49.266;7.104;2023-02-08T18:16:13;18.50;;;10.93;;
15183;SDS011;7693;49.266;7.104;2023-02-08T18:18:41;18.77;;;13.50;;
15183;SDS011;7693;49.266;7.104;2023-02-08T18:21:11;21.73;;;14.80;;
15183;SDS011;7693;49.266;7.104;2023-02-08T18:23:38;21.17;;;14.73;;
15183;SDS011;7693;49.266;7.104;2023-02-08T18:26:06;19.70;;;15.00;;
15183;SDS011;7693;49.266;7.104;2023-02-08T18:28:33;20.30;;;14.57;;
15183;SDS011;7693;49.266;7.104;2023-02-08T18:31:09;21.43;;;15.03;;
15183;SDS011;7693;49.266;7.104;2023-02-08T18:33:38;21.07;;;14.60;;
15183;SDS011;7693;49.266;7.104;2023-02-08T18:36:04;23.23;;;14.50;;
15183;SDS011;7693;49.266;7.104;2023-02-08T18:38:30;20.17;;;14.00;;
15183;SDS011;7693;49.266;7.104;2023-02-08T18:40:56;18.80;;;13.47;;
15183;SDS011;7693;49.266;7.104;2023-02-08T18:43:22;20.70;;;14.57;;
15183;SDS011;7693;49.266;7.104;2023-02-08T18:45:59;19.63;;;14.50;;
15183;SDS011;7693;49.266;7.104;2023-02-08T18:48:25;20.27;;;13.00;;
15183;SDS011;7693;49.266;7.104;2023-02-08T18:50:54;18.93;;;13.90;;
15183;SDS011;7693;49.266;7.104;2023-02-08T18:53:23;20.13;;;13.57;;
15183;SDS011;7693;49.266;7.104;2023-02-08T18:55:54;18.30;;;13.07;;
15183;SDS011;7693;49.266;7.104;2023-02-08T18:58:21;25.50;;;14.87;;
15183;SDS011;7693;49.266;7.104;2023-02-08T19:00:47;22.33;;;15.57;;
15183;SDS011;7693;49.266;7.104;2023-02-08T19:03:14;20.63;;;14.43;;
15183;SDS011;7693;49.266;7.104;2023-02-08T19:05:44;20.97;;;15.33;;
15183;SDS011;7693;49.266;7.104;2023-02-08T19:08:10;22.70;;;15.93;;
15183;SDS011;7693;49.266;7.104;2023-02-08T19:10:37;26.33;;;18.03;;
15183;SDS011;7693;49.266;7.104;2023-02-08T19:13:03;30.03;;;16.57;;
15183;SDS011;7693;49.266;7.104;2023-02-08T19:15:29;23.27;;;14.93;;
15183;SDS011;7693;49.266;7.104;2023-02-08T19:17:54;21.27;;;15.10;;
15183;SDS011;7693;49.266;7.104;2023-02-08T19:20:22;22.27;;;15.27;;
15183;SDS011;7693;49.266;7.104;2023-02-08T19:22:47;24.53;;;16.83;;
15183;SDS011;7693;49.266;7.104;2023-02-08T19:25:13;21.50;;;15.70;;
15183;SDS011;7693;49.266;7.104;2023-02-08T19:27:39;22.33;;;15.23;;
15183;SDS011;7693;49.266;7.104;2023-02-08T19:30:04;24.87;;;16.90;;
15183;SDS011;7693;49.266;7.104;2023-02-08T19:32:30;23.10;;;16.70;;
15183;SDS011;7693;49.266;7.104;2023-02-08T19:34:56;31.30;;;20.10;;
15183;SDS011;7693;49.266;7.104;2023-02-08T19:37:21;24.20;;;17.60;;
15183;SDS011;7693;49.266;7.104;2023-02-08T19:39:47;24.30;;;17.10;;
15183;SDS011;7693;49.266;7.104;2023-02-08T19:42:13;23.33;;;16.53;;
15183;SDS011;7693;49.266;7.104;2023-02-08T19:44:38;26.20;;;16.20;;
15183;SDS011;7693;49.266;7.104;2023-02-08T19:47:04;22.43;;;16.03;;
15183;SDS011;7693;49.266;7.104;2023-02-08T19:49:29;25.17;;;17.37;;
15183;SDS011;7693;49.266;7.104;2023-02-08T19:51:55;22.53;;;16.07;;
15183;SDS011;7693;49.266;7.104;2023-02-08T19:54:21;29.60;;;16.37;;
15183;SDS011;7693;49.266;7.104;2023-02-08T19:56:47;23.70;;;16.03;;
15183;SDS011;7693;49.266;7.104;2023-02-08T19:59:18;21.57;;;15.50;;
15183;SDS011;7693;49.266;7.104;2023-02-08T20:01:46;23.50;;;15.70;;
15183;SDS011;7693;49.266;7.104;2023-02-08T20:04:12;24.83;;;17.17;;
15183;SDS011;7693;49.266;7.104;2023-02-08T20:06:38;29.07;;;18.93;;
15183;SDS011;7693;49.266;7.104;2023-02-08T20:09:05;25.03;;;18.20;;
15183;SDS011;7693;49.266;7.104;2023-02-08T20:11:33;29.50;;;18.77;;
15183;SDS011;7693;49.266;7.104;2023-02-08T20:14:01;26.07;;;17.13;;
15183;SDS011;7693;49.266;7.104;2023-02-08T20:16:28;28.83;;;19.00;;
15183;SDS011;7693;49.266;7.104;2023-02-08T20:18:54;24.20;;;16.57;;
15183;SDS011;7693;49.266;7.104;2023-02-08T20:21:20;22.23;;;16.53;;
15183;SDS011;7693;49.266;7.104;2023-02-08T20:23:47;23.27;;;15.87;;
15183;SDS011;7693;49.266;7.104;2023-02-08T20:28:42;22.57;;;15.57;;
15183;SDS011;7693;49.266;7.104;2023-02-08T20:31:11;23.97;;;15.57;;
15183;SDS011;7693;49.266;7.104;2023-02-08T20:33:38;20.63;;;14.13;;
15183;SDS011;7693;49.266;7.104;2023-02-08T20:36:05;21.33;;;14.40;;
15183;SDS011;7693;49.266;7.104;2023-02-08T20:38:39;21.60;;;15.20;;
15183;SDS011;7693;49.266;7.104;2023-02-08T20:41:06;27.47;;;17.50;;
15183;SDS011;7693;49.266;7.104;2023-02-08T20:43:33;26.33;;;16.97;;
15183;SDS011;7693;49.266;7.104;2023-02-08T20:46:00;23.57;;;16.70;;
15183;SDS011;7693;49.266;7.104;2023-02-08T20:48:28;21.17;;;14.13;;
15183;SDS011;7693;49.266;7.104;2023-02-08T20:50:54;24.63;;;15.47;;
15183;SDS011;7693;49.266;7.104;2023-02-08T20:53:20;21.83;;;15.77;;
15183;SDS011;7693;49.266;7.104;2023-02-08T20:55:46;22.60;;;15.17;;
15183;SDS011;7693;49.266;7.104;2023-02-08T20:58:11;22.33;;;15.97;;
15183;SDS011;7693;49.266;7.104;2023-02-08T21:00:37;21.47;;;14.87;;
15183;SDS011;7693;49.266;7.104;2023-02-08T21:03:03;20.83;;;14.33;;
15183;SDS011;7693;49.266;7.104;2023-02-08T21:05:28;21.37;;;14.07;;
15183;SDS011;7693;49.266;7.104;2023-02-08T21:07:54;22.23;;;14.20;;
15183;SDS011;7693;49.266;7.104;2023-02-08T21:10:20;18.30;;;13.00;;
15183;SDS011;7693;49.266;7.104;2023-02-08T21:12:45;21.93;;;15.40;;
15183;SDS011;7693;49.266;7.104;2023-02-08T21:15:11;25.07;;;15.20;;
15183;SDS011;7693;49.266;7.104;2023-02-08T21:17:36;26.63;;;16.83;;
15183;SDS011;7693;49.266;7.104;2023-02-08T21:20:02;27.90;;;16.70;;
15183;SDS011;7693;49.266;7.104;2023-02-08T21:22:28;31.57;;;18.17;;
15183;SDS011;7693;49.266;7.104;2023-02-08T21:24:54;28.23;;;17.20;;
15183;SDS011;7693;49.266;7.104;2023-02-08T21:27:19;23.03;;;15.10;;
15183;SDS011;7693;49.266;7.104;2023-02-08T21:29:48;25.50;;;16.27;;
15183;SDS011;7693;49.266;7.104;2023-02-08T21:32:14;25.87;;;15.60;;
15183;SDS011;7693;49.266;7.104;2023-02-08T21:34:41;21.03;;;14.17;;
15183;SDS011;7693;49.266;7.104;2023-02-08T21:37:06;22.47;;;14.93;;
15183;SDS011;7693;49.266;7.104;2023-02-08T21:39:32;21.57;;;14.47;;
15183;SDS011;7693;49.266;7.104;2023-02-08T21:41:57;23.30;;;15.63;;
15183;SDS011;7693;49.266;7.104;2023-02-08T21:44:23;24.43;;;15.70;;
15183;SDS011;7693;49.266;7.104;2023-02-08T21:46:48;22.43;;;15.57;;
15183;SDS011;7693;49.266;7.104;2023-02-08T21:49:14;21.97;;;14.47;;
15183;SDS011;7693;49.266;7.104;2023-02-08T21:51:58;24.10;;;14.67;;
15183;SDS011;7693;49.266;7.104;2023-02-08T21:54:42;21.47;;;15.10;;
15183;SDS011;7693;49.266;7.104;2023-02-08T21:57:22;23.20;;;15.20;;
15183;SDS011;7693;49.266;7.104;2023-02-08T21:59:52;20.10;;;14.60;;
15183;SDS011;7693;49.266;7.104;2023-02-08T22:02:24;21.17;;;14.00;;
15183;SDS011;7693;49.266;7.104;2023-02-08T22:04:52;21.67;;;15.67;;
15183;SDS011;7693;49.266;7.104;2023-02-08T22:07:22;24.40;;;16.00;;
15183;SDS011;7693;49.266;7.104;2023-02-08T22:09:49;20.73;;;15.73;;
15183;SDS011;7693;49.266;7.104;2023-02-08T22:12:15;23.90;;;15.90;;
15183;SDS011;7693;49.266;7.104;2023-02-08T22:14:45;23.67;;;16.87;;
15183;SDS011;7693;49.266;7.104;2023-02-08T22:17:11;22.30;;;16.10;;
15183;SDS011;7693;49.266;7.104;2023-02-08T22:19:38;22.23;;;15.43;;
15183;SDS011;7693;49.266;7.104;2023-02-08T22:22:04;23.37;;;15.23;;
15183;SDS011;7693;49.266;7.104;2023-02-08T22:24:34;24.50;;;16.00;;
15183;SDS011;7693;49.266;7.104;2023-02-08T22:27:00;21.83;;;14.63;;
15183;SDS011;7693;49.266;7.104;2023-02-08T22:29:26;20.70;;;14.47;;
15183;SDS011;7693;49.266;7.104;2023-02-08T22:31:52;24.03;;;16.40;;
15183;SDS011;7693;49.266;7.104;2023-02-08T22:34:18;23.87;;;16.10;;
15183;SDS011;7693;49.266;7.104;2023-02-08T22:36:44;23.30;;;15.63;;
15183;SDS011;7693;49.266;7.104;2023-02-08T22:39:09;21.57;;;14.63;;
15183;SDS011;7693;49.266;7.104;2023-02-08T22:41:36;23.63;;;16.03;;
15183;SDS011;7693;49.266;7.104;2023-02-08T22:44:02;20.73;;;15.27;;
15183;SDS011;7693;49.266;7.104;2023-02-08T22:46:27;23.83;;;15.20;;
15183;SDS011;7693;49.266;7.104;2023-02-08T22:48:53;27.77;;;14.37;;
15183;SDS011;7693;49.266;7.104;2023-02-08T22:51:18;22.90;;;15.20;;
15183;SDS011;7693;49.266;7.104;2023-02-08T22:53:46;22.60;;;13.97;;
15183;SDS011;7693;49.266;7.104;2023-02-08T22:56:12;21.20;;;14.47;;
15183;SDS011;7693;49.266;7.104;2023-02-08T22:58:39;26.40;;;15.60;;
15183;SDS011;7693;49.266;7.104;2023-02-08T23:01:11;24.00;;;15.63;;
15183;SDS011;7693;49.266;7.104;2023-02-08T23:03:39;26.13;;;15.23;;
15183;SDS011;7693;49.266;7.104;2023-02-08T23:06:05;22.77;;;15.50;;
15183;SDS011;7693;49.266;7.104;2023-02-08T23:08:32;23.70;;;15.50;;
15183;SDS011;7693;49.266;7.104;2023-02-08T23:10:58;23.47;;;16.27;;
15183;SDS011;7693;49.266;7.104;2023-02-08T23:13:26;26.77;;;18.23;;
15183;SDS011;7693;49.266;7.104;2023-02-08T23:15:53;28.33;;;16.63;;
15183;SDS011;7693;49.266;7.104;2023-02-08T23:18:18;25.07;;;15.87;;
15183;SDS011;7693;49.266;7.104;2023-02-08T23:20:44;27.97;;;15.77;;
15183;SDS011;7693;49.266;7.104;2023-02-08T23:23:09;22.20;;;14.57;;
15183;SDS011;7693;49.266;7.104;2023-02-08T23:25:38;29.33;;;17.83;;
15183;SDS011;7693;49.266;7.104;2023-02-08T23:28:04;32.73;;;21.00;;
15183;SDS011;7693;49.266;7.104;2023-02-08T23:30:30;35.03;;;22.23;;
15183;SDS011;7693;49.266;7.104;2023-02-08T23:32:56;41.80;;;24.97;;
15183;SDS011;7693;49.266;7.104;2023-02-08T23:35:22;39.43;;;24.07;;
15183;SDS011;7693;49.266;7.104;2023-02-08T23:37:47;37.50;;;22.37;;
15183;SDS011;7693;49.266;7.104;2023-02-08T23:40:13;45.77;;;26.40;;
15183;SDS011;7693;49.266;7.104;2023-02-08T23:42:39;43.80;;;26.70;;
15183;SDS011;7693;49.266;7.104;2023-02-08T23:45:04;41.07;;;26.03;;
15183;SDS011;7693;49.266;7.104;2023-02-08T23:47:30;27.97;;;19.20;;
15183;SDS011;7693;49.266;7.104;2023-02-08T23:49:56;29.57;;;19.20;;
15183;SDS011;7693;49.266;7.104;2023-02-08T23:52:22;29.13;;;18.33;;
15183;SDS011;7693;49.266;7.104;2023-02-08T23:54:47;28.67;;;17.77;;
15183;SDS011;7693;49.266;7.104;2023-02-08T23:57:13;28.67;;;17.87;;
15183;SDS011;7693;49.266;7.104;2023-02-08T23:59:39;26.17;;;17.83;;
